createdAt,value
2019-04-01T00:01:34.214Z,8.20
2019-04-01T00:04:02.740Z,8.10
2019-04-01T00:06:31.490Z,8.10
2019-04-01T00:08:59.997Z,8.10
2019-04-01T00:11:28.434Z,8.00
2019-04-01T00:13:56.650Z,8.00
2019-04-01T00:16:25.140Z,8.00
2019-04-01T00:19:02.975Z,7.90
2019-04-01T00:21:22.753Z,7.90
2019-04-01T00:23:51.035Z,7.80
2019-04-01T00:26:19.397Z,7.70
2019-04-01T00:28:47.664Z,7.70
2019-04-01T00:31:16.133Z,7.60
2019-04-01T00:33:44.397Z,7.40
2019-04-01T00:36:12.729Z,7.40
2019-04-01T00:38:41.253Z,7.30
2019-04-01T00:41:10.823Z,7.30
2019-04-01T00:43:40.829Z,7.20
2019-04-01T00:46:09.422Z,7.20
2019-04-01T00:48:37.759Z,7.20
2019-04-01T00:51:06.025Z,7.10
2019-04-01T00:53:34.374Z,7.20
2019-04-01T00:56:03.089Z,7.20
2019-04-01T00:58:31.528Z,7.20
2019-04-01T01:00:59.814Z,7.20
2019-04-01T01:03:28.089Z,7.20
2019-04-01T01:05:56.617Z,7.20
2019-04-01T01:08:24.932Z,7.20
2019-04-01T01:10:53.251Z,7.20
2019-04-01T01:13:21.581Z,7.20
2019-04-01T01:15:49.977Z,7.20
2019-04-01T01:18:18.236Z,7.20
2019-04-01T01:20:47.025Z,7.20
2019-04-01T01:23:15.292Z,7.20
2019-04-01T01:25:43.546Z,7.10
2019-04-01T01:28:11.814Z,7.10
2019-04-01T01:30:40.136Z,7.10
2019-04-01T01:33:08.439Z,7.00
2019-04-01T01:35:36.859Z,7.00
2019-04-01T01:38:05.199Z,7.00
2019-04-01T01:40:33.465Z,7.00
2019-04-01T01:43:01.732Z,7.10
2019-04-01T01:45:30.030Z,7.00
2019-04-01T01:47:58.288Z,7.00
2019-04-01T01:50:26.551Z,7.00
2019-04-01T01:52:54.861Z,6.90
2019-04-01T01:55:23.188Z,6.90
2019-04-01T01:57:51.572Z,6.90
2019-04-01T02:00:20.761Z,6.90
2019-04-01T02:02:49.199Z,6.90
2019-04-01T02:05:17.614Z,6.90
2019-04-01T02:07:45.883Z,6.90
2019-04-01T02:10:14.170Z,6.80
2019-04-01T02:12:42.530Z,6.80
2019-04-01T02:15:10.915Z,6.70
2019-04-01T02:17:39.246Z,6.80
2019-04-01T02:20:09.152Z,6.70
2019-04-01T02:22:37.435Z,6.70
2019-04-01T02:25:05.695Z,6.70
2019-04-01T02:27:33.959Z,6.60
2019-04-01T02:30:02.512Z,6.60
2019-04-01T02:32:30.882Z,6.60
2019-04-01T02:34:59.202Z,6.60
2019-04-01T02:37:27.542Z,6.60
2019-04-01T02:39:55.770Z,6.60
2019-04-01T02:42:24.067Z,6.60
2019-04-01T02:44:52.684Z,6.60
2019-04-01T02:47:20.951Z,6.60
2019-04-01T02:49:49.512Z,6.60
2019-04-01T02:52:17.868Z,6.60
2019-04-01T02:54:46.173Z,6.50
2019-04-01T02:57:14.433Z,6.50
2019-04-01T02:59:42.700Z,6.50
2019-04-01T03:02:11.205Z,6.40
2019-04-01T03:04:42.313Z,6.50
2019-04-01T03:07:10.866Z,6.50
2019-04-01T03:09:40.516Z,6.40
2019-04-01T03:12:08.940Z,6.40
2019-04-01T03:14:37.319Z,6.30
2019-04-01T03:17:05.881Z,6.30
2019-04-01T03:19:34.335Z,6.30
2019-04-01T03:22:02.693Z,6.20
2019-04-01T03:24:31.088Z,6.10
2019-04-01T03:26:59.389Z,5.90
2019-04-01T03:29:27.629Z,5.90
2019-04-01T03:31:56.052Z,5.80
2019-04-01T03:34:24.396Z,5.60
2019-04-01T03:36:52.907Z,5.50
2019-04-01T03:39:21.242Z,5.40
2019-04-01T03:41:49.517Z,5.30
2019-04-01T03:44:17.829Z,5.20
2019-04-01T03:46:46.446Z,5.20
2019-04-01T03:49:16.352Z,5.20
2019-04-01T03:51:44.147Z,5.20
2019-04-01T03:54:12.593Z,5.10
2019-04-01T03:56:41.107Z,5.10
2019-04-01T03:59:09.474Z,5.10
2019-04-01T04:01:37.766Z,5.00
2019-04-01T04:04:06.066Z,5.00
2019-04-01T04:06:34.422Z,5.00
2019-04-01T04:09:03.815Z,4.90
2019-04-01T04:11:32.485Z,4.90
2019-04-01T04:14:01.100Z,4.90
2019-04-01T04:16:29.459Z,4.90
2019-04-01T04:18:58.285Z,4.90
2019-04-01T04:21:26.646Z,4.80
2019-04-01T04:23:55.157Z,4.80
2019-04-01T04:26:23.559Z,4.80
2019-04-01T04:28:51.930Z,4.80
2019-04-01T04:31:20.313Z,4.80
2019-04-01T04:33:48.726Z,4.80
2019-04-01T04:36:16.999Z,4.80
2019-04-01T04:38:45.274Z,4.70
2019-04-01T04:41:13.639Z,4.70
2019-04-01T04:43:42.185Z,4.60
2019-04-01T04:46:10.626Z,4.60
2019-04-01T04:48:39.086Z,4.70
2019-04-01T04:51:07.400Z,4.70
2019-04-01T04:53:35.847Z,4.80
2019-04-01T04:56:04.288Z,4.90
2019-04-01T04:58:32.844Z,4.90
2019-04-01T05:01:01.302Z,5.10
2019-04-01T05:03:29.659Z,5.50
2019-04-01T05:05:58.099Z,5.80
2019-04-01T05:08:26.500Z,6.20
2019-04-01T05:10:54.998Z,6.50
2019-04-01T05:13:24.317Z,6.80
2019-04-01T05:15:52.761Z,7.00
2019-04-01T05:18:21.198Z,7.00
2019-04-01T05:20:49.496Z,7.10
2019-04-01T05:23:17.947Z,7.30
2019-04-01T05:25:46.676Z,7.40
2019-04-01T05:28:15.288Z,7.40
2019-04-01T05:30:55.878Z,7.60
2019-04-01T05:33:24.336Z,7.60
2019-04-01T05:35:52.823Z,7.90
2019-04-01T05:38:21.328Z,8.00
2019-04-01T05:40:49.668Z,8.30
2019-04-01T05:43:18.198Z,8.60
2019-04-01T05:45:46.968Z,8.60
2019-04-01T05:48:17.038Z,9.10
2019-04-01T05:50:45.706Z,9.50
2019-04-01T05:53:14.010Z,10.20
2019-04-01T05:55:42.410Z,11.00
2019-04-01T05:58:10.765Z,11.20
2019-04-01T06:00:43.689Z,11.20
2019-04-01T06:03:12.038Z,11.90
2019-04-01T06:05:40.353Z,12.50
2019-04-01T06:08:08.821Z,12.90
2019-04-01T06:10:37.161Z,13.40
2019-04-01T06:13:05.702Z,14.00
2019-04-01T06:15:34.272Z,14.40
2019-04-01T06:18:02.634Z,14.50
2019-04-01T06:20:31.210Z,15.40
2019-04-01T06:22:59.688Z,15.50
2019-04-01T06:25:28.166Z,16.10
2019-04-01T06:27:56.582Z,16.50
2019-04-01T06:30:25.062Z,16.90
2019-04-01T06:32:53.339Z,17.50
2019-04-01T06:35:21.698Z,17.00
2019-04-01T06:37:50.026Z,16.50
2019-04-01T06:40:18.296Z,16.70
2019-04-01T06:42:46.653Z,16.90
2019-04-01T06:45:15.136Z,17.00
2019-04-01T06:47:43.558Z,17.20
2019-04-01T06:50:11.848Z,17.60
2019-04-01T06:52:40.167Z,17.90
2019-04-01T06:55:10.077Z,18.60
2019-04-01T06:57:38.425Z,19.20
2019-04-01T07:00:06.703Z,18.90
2019-04-01T07:02:35.155Z,19.20
2019-04-01T07:05:04.307Z,18.90
2019-04-01T07:07:32.762Z,19.10
2019-04-01T07:10:01.703Z,19.40
2019-04-01T07:12:30.024Z,19.30
2019-04-01T07:14:58.477Z,19.20
2019-04-01T07:17:27.765Z,18.60
2019-04-01T07:19:56.125Z,18.70
2019-04-01T07:22:24.527Z,19.50
2019-04-01T07:24:52.809Z,20.60
2019-04-01T07:27:21.159Z,21.80
2019-04-01T07:29:49.708Z,21.90
2019-04-01T07:32:18.426Z,20.60
2019-04-01T07:34:46.935Z,20.50
2019-04-01T07:37:15.459Z,21.40
2019-04-01T07:39:45.198Z,22.30
2019-04-01T07:42:13.582Z,23.00
2019-04-01T07:44:41.862Z,23.00
2019-04-01T07:47:10.342Z,22.10
2019-04-01T07:49:38.688Z,22.00
2019-04-01T07:52:07.089Z,21.60
2019-04-01T07:54:35.375Z,21.60
2019-04-01T07:57:03.656Z,22.00
2019-04-01T07:59:32.234Z,22.70
2019-04-01T08:02:00.660Z,22.60
2019-04-01T08:04:29.391Z,23.00
2019-04-01T08:06:57.733Z,23.50
2019-04-01T08:09:26.184Z,23.20
2019-04-01T08:11:54.542Z,23.50
2019-04-01T08:14:22.866Z,22.80
2019-04-01T08:16:51.226Z,23.00
2019-04-01T08:19:20.492Z,23.20
2019-04-01T08:21:52.241Z,23.70
2019-04-01T08:24:18.916Z,24.50
2019-04-01T08:26:47.221Z,24.60
2019-04-01T08:29:29.544Z,24.40
2019-04-01T08:31:45.902Z,24.40
2019-04-01T08:34:14.197Z,23.80
2019-04-01T08:36:42.689Z,23.80
2019-04-01T08:39:13.428Z,23.60
2019-04-01T08:41:42.088Z,23.00
2019-04-01T08:44:10.402Z,23.40
2019-04-01T08:46:38.716Z,23.50
2019-04-01T08:49:08.023Z,23.70
2019-04-01T08:51:36.431Z,24.00
2019-04-01T08:54:04.794Z,24.00
2019-04-01T08:56:37.905Z,23.30
2019-04-01T08:59:03.608Z,22.70
2019-04-01T09:01:35.483Z,23.70
2019-04-01T09:04:01.945Z,22.00
2019-04-01T09:06:31.425Z,21.00
2019-04-01T09:09:00.239Z,22.00
2019-04-01T09:11:28.588Z,22.70
2019-04-01T09:13:56.976Z,23.40
2019-04-01T09:16:25.314Z,23.30
2019-04-01T09:18:53.755Z,23.20
2019-04-01T09:21:22.369Z,24.20
2019-04-01T09:23:52.321Z,23.40
2019-04-01T09:26:20.926Z,23.30
2019-04-01T09:28:49.235Z,23.40
2019-04-01T09:31:17.890Z,23.30
2019-04-01T09:33:46.449Z,23.20
2019-04-01T09:36:14.737Z,23.20
2019-04-01T09:38:44.869Z,23.30
2019-04-01T09:41:13.708Z,23.90
2019-04-01T09:43:42.281Z,24.60
2019-04-01T09:46:10.845Z,23.90
2019-04-01T09:48:39.514Z,23.10
2019-04-01T09:51:07.880Z,23.30
2019-04-01T09:53:36.233Z,23.90
2019-04-01T09:56:04.585Z,24.10
2019-04-01T09:58:34.891Z,23.80
2019-04-01T10:01:03.142Z,24.30
2019-04-01T10:03:31.821Z,25.20
2019-04-01T10:06:00.206Z,24.70
2019-04-01T10:08:41.551Z,24.40
2019-04-01T10:10:58.811Z,22.80
2019-04-01T10:13:27.282Z,22.30
2019-04-01T10:15:55.650Z,22.60
2019-04-01T10:18:24.121Z,22.50
2019-04-01T10:20:52.456Z,22.90
2019-04-01T10:23:21.823Z,23.10
2019-04-01T10:25:51.481Z,23.10
2019-04-01T10:28:20.245Z,22.30
2019-04-01T10:30:48.668Z,22.70
2019-04-01T10:33:17.035Z,23.20
2019-04-01T10:35:45.509Z,24.00
2019-04-01T10:38:13.789Z,23.30
2019-04-01T10:40:42.079Z,22.60
2019-04-01T10:43:10.482Z,22.80
2019-04-01T10:45:38.798Z,22.50
2019-04-01T10:48:07.402Z,22.50
2019-04-01T10:50:35.901Z,22.40
2019-04-01T10:53:04.252Z,21.10
2019-04-01T10:55:32.588Z,21.30
2019-04-01T10:58:01.149Z,22.60
2019-04-01T11:00:30.113Z,23.40
2019-04-01T11:03:06.067Z,23.60
2019-04-01T11:05:34.033Z,24.30
2019-04-01T11:08:02.904Z,23.40
2019-04-01T11:10:31.290Z,22.80
2019-04-01T11:12:59.881Z,22.40
2019-04-01T11:15:28.240Z,22.90
2019-04-01T11:17:56.598Z,22.50
2019-04-01T11:20:51.633Z,21.30
2019-04-01T11:23:20.444Z,21.30
2019-04-01T11:25:49.644Z,20.20
2019-04-01T11:28:18.032Z,20.20
2019-04-01T11:30:46.540Z,20.90
2019-04-01T11:33:39.550Z,21.70
2019-04-01T11:36:07.905Z,20.80
2019-04-01T11:38:37.250Z,21.10
2019-04-01T11:41:05.924Z,21.10
2019-04-01T11:43:35.761Z,21.10
2019-04-01T11:46:04.520Z,20.70
2019-04-01T11:48:33.071Z,20.80
2019-04-01T11:51:01.555Z,20.10
2019-04-01T11:53:30.317Z,18.80
2019-04-01T11:55:58.590Z,18.50
2019-04-01T11:58:26.993Z,18.50
2019-04-01T12:00:55.407Z,17.70
2019-04-01T12:03:24.054Z,16.90
2019-04-01T12:05:52.674Z,16.50
2019-04-01T12:08:21.179Z,16.60
2019-04-01T12:10:49.659Z,16.80
2019-04-01T12:13:18.006Z,16.40
2019-04-01T12:15:49.312Z,16.50
2019-04-01T12:18:17.610Z,16.50
2019-04-01T12:20:45.886Z,16.40
2019-04-01T12:23:17.244Z,16.20
2019-04-01T12:25:45.658Z,16.00
2019-04-01T12:28:14.256Z,15.90
2019-04-01T12:30:42.831Z,16.20
2019-04-01T12:33:11.169Z,15.90
2019-04-01T12:35:41.171Z,15.60
2019-04-01T12:38:08.819Z,15.60
2019-04-01T12:40:37.149Z,15.20
2019-04-01T12:43:05.419Z,14.50
2019-04-01T12:45:33.698Z,13.90
2019-04-01T12:48:02.097Z,13.50
2019-04-01T12:50:35.141Z,13.30
2019-04-01T12:53:04.118Z,13.10
2019-04-01T12:55:32.352Z,13.10
2019-04-01T12:58:00.824Z,13.20
2019-04-01T13:00:29.481Z,13.00
2019-04-01T13:02:57.884Z,12.80
2019-04-01T13:05:26.215Z,12.50
2019-04-01T13:07:54.549Z,12.30
2019-04-01T13:10:22.975Z,12.30
2019-04-01T13:12:54.108Z,12.30
2019-04-01T13:15:20.900Z,12.20
2019-04-01T13:17:50.025Z,11.90
2019-04-01T13:20:18.535Z,12.00
2019-04-01T13:22:46.902Z,11.90
2019-04-01T13:25:15.319Z,11.80
2019-04-01T13:27:43.719Z,11.90
2019-04-01T13:30:13.279Z,12.00
2019-04-01T13:32:41.753Z,12.10
2019-04-01T13:35:10.247Z,12.00
2019-04-01T13:37:38.600Z,12.00
2019-04-01T13:40:06.884Z,12.10
2019-04-01T13:42:35.314Z,12.10
2019-04-01T13:45:04.695Z,11.80
2019-04-01T13:47:33.066Z,11.70
2019-04-01T13:50:01.528Z,12.00
2019-04-01T13:52:30.054Z,11.80
2019-04-01T13:54:58.325Z,11.90
2019-04-01T13:57:26.632Z,11.80
2019-04-01T13:59:54.983Z,11.70
2019-04-01T14:02:23.283Z,11.70
2019-04-01T14:04:51.576Z,11.50
2019-04-01T14:07:21.333Z,11.50
2019-04-01T14:09:51.136Z,11.60
2019-04-01T14:12:20.053Z,11.50
2019-04-01T14:14:48.945Z,11.50
2019-04-01T14:17:17.398Z,11.50
2019-04-01T14:19:45.750Z,11.40
2019-04-01T14:22:14.123Z,11.40
2019-04-01T14:24:42.852Z,11.20
2019-04-01T14:27:15.434Z,11.10
2019-04-01T14:29:43.762Z,11.00
2019-04-01T14:32:12.825Z,11.00
2019-04-01T14:34:41.322Z,11.10
2019-04-01T14:37:10.145Z,11.10
2019-04-01T14:39:38.610Z,11.10
2019-04-01T14:42:08.490Z,11.00
2019-04-01T14:44:37.077Z,11.10
2019-04-01T14:47:08.842Z,11.00
2019-04-01T14:49:35.340Z,11.00
2019-04-01T14:52:03.661Z,11.00
2019-04-01T14:54:32.140Z,10.90
2019-04-01T14:57:00.737Z,10.80
2019-04-01T14:59:29.210Z,10.80
2019-04-01T15:01:57.562Z,10.80
2019-04-01T15:04:26.008Z,10.70
2019-04-01T15:06:54.330Z,10.60
2019-04-01T15:09:23.620Z,10.50
2019-04-01T15:11:52.016Z,10.40
2019-04-01T15:14:20.302Z,10.40
2019-04-01T15:16:48.664Z,10.30
2019-04-01T15:19:17.175Z,10.20
2019-04-01T15:21:47.373Z,10.10
2019-04-01T15:24:15.495Z,10.10
2019-04-01T15:26:43.903Z,10.10
2019-04-01T15:29:12.190Z,10.10
2019-04-01T15:31:40.691Z,10.10
2019-04-01T15:34:09.825Z,10.10
2019-04-01T15:36:38.246Z,10.00
2019-04-01T15:39:08.770Z,10.00
2019-04-01T15:41:37.211Z,9.90
2019-04-01T15:44:05.503Z,9.90
2019-04-01T15:46:34.217Z,9.90
2019-04-01T15:49:03.409Z,9.90
2019-04-01T15:51:31.786Z,9.90
2019-04-01T15:54:01.526Z,9.90
2019-04-01T15:56:30.142Z,9.80
2019-04-01T15:58:58.682Z,9.80
2019-04-01T16:01:27.127Z,9.70
2019-04-01T16:03:55.678Z,9.70
2019-04-01T16:06:24.034Z,9.70
2019-04-01T16:08:53.200Z,9.60
2019-04-01T16:11:22.451Z,9.50
2019-04-01T16:13:50.955Z,9.50
2019-04-01T16:16:19.352Z,9.50
2019-04-01T16:18:47.740Z,9.40
2019-04-01T16:21:16.203Z,9.40
2019-04-01T16:23:44.587Z,9.40
2019-04-01T16:26:13.163Z,9.30
2019-04-01T16:28:41.690Z,9.20
2019-04-01T16:31:10.226Z,9.20
2019-04-01T16:33:38.652Z,9.20
2019-04-01T16:36:08.106Z,9.10
2019-04-01T16:38:36.461Z,9.10
2019-04-01T16:41:05.035Z,9.00
2019-04-01T16:43:33.370Z,8.90
2019-04-01T16:46:01.644Z,8.90
2019-04-01T16:48:30.047Z,8.90
2019-04-01T16:50:58.529Z,8.80
2019-04-01T16:53:27.002Z,8.80
2019-04-01T16:55:55.422Z,8.70
2019-04-01T16:58:23.760Z,8.60
2019-04-01T17:00:52.054Z,8.50
2019-04-01T17:03:20.668Z,8.50
2019-04-01T17:05:49.136Z,8.40
2019-04-01T17:08:17.401Z,8.40
2019-04-01T17:10:46.143Z,8.30
2019-04-01T17:13:14.720Z,8.20
2019-04-01T17:15:43.223Z,8.10
2019-04-01T17:18:11.704Z,8.10
2019-04-01T17:20:40.086Z,8.10
2019-04-01T17:23:08.567Z,8.10
2019-04-01T17:25:36.879Z,8.00
2019-04-01T17:28:05.234Z,8.00
2019-04-01T17:30:33.556Z,7.90
2019-04-01T17:33:02.030Z,7.80
2019-04-01T17:35:35.993Z,7.80
2019-04-01T17:38:05.221Z,7.70
2019-04-01T17:40:33.855Z,7.60
2019-04-01T17:43:03.640Z,7.60
2019-04-01T17:45:34.546Z,7.60
2019-04-01T17:48:05.168Z,7.50
2019-04-01T17:50:33.701Z,7.50
2019-04-01T17:53:02.233Z,7.40
2019-04-01T17:55:30.562Z,7.40
2019-04-01T17:57:59.094Z,7.40
2019-04-01T18:00:31.815Z,7.40
2019-04-01T18:03:00.229Z,7.30
2019-04-01T18:05:31.889Z,7.30
2019-04-01T18:08:00.369Z,7.30
2019-04-01T18:10:28.718Z,7.20
2019-04-01T18:12:57.031Z,7.20
2019-04-01T18:15:25.385Z,7.10
2019-04-01T18:17:53.613Z,7.20
2019-04-01T18:20:24.720Z,7.10
2019-04-01T18:22:53.056Z,7.10
2019-04-01T18:25:21.539Z,7.00
2019-04-01T18:27:49.901Z,7.00
2019-04-01T18:30:18.260Z,6.90
2019-04-01T18:32:46.616Z,6.90
2019-04-01T18:35:14.929Z,6.80
2019-04-01T18:37:43.230Z,6.80
2019-04-01T18:40:12.370Z,6.70
2019-04-01T18:42:40.837Z,6.70
2019-04-01T18:45:09.805Z,6.60
2019-04-01T18:47:39.076Z,6.60
2019-04-01T18:50:07.573Z,6.50
2019-04-01T18:52:35.871Z,6.50
2019-04-01T18:55:07.773Z,6.40
2019-04-01T18:57:35.444Z,6.30
2019-04-01T19:00:06.164Z,6.30
2019-04-01T19:02:34.435Z,6.20
2019-04-01T19:05:02.710Z,6.20
2019-04-01T19:07:30.996Z,6.20
2019-04-01T19:10:06.052Z,6.20
2019-04-01T19:12:29.176Z,6.20
2019-04-01T19:15:01.865Z,6.20
2019-04-01T19:17:28.223Z,6.10
2019-04-01T19:19:57.204Z,6.10
2019-04-01T19:22:26.963Z,6.00
2019-04-01T19:24:57.053Z,6.00
2019-04-01T19:27:24.682Z,6.00
2019-04-01T19:29:55.829Z,5.90
2019-04-01T19:32:27.154Z,5.80
2019-04-01T19:34:54.725Z,5.70
2019-04-01T19:37:24.198Z,5.70
2019-04-01T19:40:07.699Z,5.60
2019-04-01T19:42:39.510Z,5.60
2019-04-01T19:45:10.060Z,5.60
2019-04-01T19:47:41.885Z,5.60
2019-04-01T19:50:23.909Z,5.60
2019-04-01T19:52:52.361Z,5.50
2019-04-01T19:55:21.384Z,5.50
2019-04-01T19:57:49.685Z,5.50
2019-04-01T20:00:27.701Z,5.40
2019-04-01T20:02:48.926Z,5.40
2019-04-01T20:05:17.386Z,5.40
2019-04-01T20:07:45.690Z,5.30
2019-04-01T20:10:14.017Z,5.30
2019-04-01T20:12:42.387Z,5.30
2019-04-01T20:15:11.886Z,5.20
2019-04-01T20:17:41.151Z,5.20
2019-04-01T20:20:10.294Z,5.10
2019-04-01T20:22:38.872Z,5.10
2019-04-01T20:25:07.411Z,5.10
2019-04-01T20:27:36.083Z,5.10
2019-04-01T20:30:09.133Z,5.10
2019-04-01T20:32:36.829Z,5.00
2019-04-01T20:35:07.303Z,5.00
2019-04-01T20:37:35.752Z,5.00
2019-04-01T20:40:05.324Z,5.00
2019-04-01T20:42:33.921Z,5.00
2019-04-01T20:45:04.101Z,4.90
2019-04-01T20:47:31.664Z,4.90
2019-04-01T20:50:01.866Z,4.90
2019-04-01T20:52:30.236Z,4.90
2019-04-01T20:55:03.296Z,4.80
2019-04-01T20:57:35.565Z,4.80
2019-04-01T21:00:18.479Z,4.80
2019-04-01T21:02:46.908Z,4.80
2019-04-01T21:05:15.307Z,4.80
2019-04-01T21:07:43.662Z,4.80
2019-04-01T21:10:12.000Z,4.80
2019-04-01T21:12:42.119Z,4.70
2019-04-01T21:15:10.488Z,4.70
2019-04-01T21:17:38.792Z,4.70
2019-04-01T21:20:07.313Z,4.60
2019-04-01T21:22:36.589Z,4.60
2019-04-01T21:25:06.367Z,4.60
2019-04-01T21:27:34.627Z,4.60
2019-04-01T21:30:03.660Z,4.50
2019-04-01T21:32:45.325Z,4.50
2019-04-01T21:35:13.994Z,4.50
2019-04-01T21:37:42.243Z,4.50
2019-04-01T21:40:10.675Z,4.50
2019-04-01T21:42:39.005Z,4.50
2019-04-01T21:45:09.005Z,4.40
2019-04-01T21:47:37.547Z,4.40
2019-04-01T21:50:09.636Z,4.40
2019-04-01T21:52:38.066Z,4.40
2019-04-01T21:55:08.003Z,4.40
2019-04-01T21:58:31.617Z,4.30
2019-04-01T22:01:00.808Z,4.30
2019-04-01T22:03:29.215Z,4.20
2019-04-01T22:05:57.523Z,4.20
2019-04-01T22:08:25.889Z,4.20
2019-04-01T22:10:54.385Z,4.20
2019-04-01T22:13:22.803Z,4.10
2019-04-01T22:15:51.147Z,4.10
2019-04-01T22:18:19.433Z,4.10
2019-04-01T22:20:47.821Z,4.00
2019-04-01T22:23:16.285Z,4.00
2019-04-01T22:25:44.538Z,4.00
2019-04-01T22:28:12.912Z,4.10
2019-04-01T22:30:41.162Z,4.10
2019-04-01T22:33:11.033Z,4.10
2019-04-01T22:35:41.715Z,4.10
2019-04-01T22:38:10.506Z,4.10
2019-04-01T22:40:38.884Z,4.20
2019-04-01T22:43:07.256Z,4.10
2019-04-01T22:45:36.399Z,4.10
2019-04-01T22:48:04.735Z,4.10
2019-04-01T22:50:33.005Z,4.10
2019-04-01T22:53:01.307Z,4.10
2019-04-01T22:55:29.615Z,4.10
2019-04-01T22:57:58.191Z,4.00
2019-04-01T23:00:26.453Z,3.90
2019-04-01T23:02:54.830Z,4.00
2019-04-01T23:05:24.760Z,4.10
2019-04-01T23:07:52.321Z,4.10
2019-04-01T23:10:20.590Z,4.10
2019-04-01T23:12:48.999Z,4.10
2019-04-01T23:15:17.281Z,4.20
2019-04-01T23:17:45.762Z,4.20
2019-04-01T23:20:14.792Z,4.30
2019-04-01T23:22:43.046Z,4.30
2019-04-01T23:25:11.679Z,4.40
2019-04-01T23:27:40.042Z,4.50
2019-04-01T23:30:10.002Z,4.60
2019-04-01T23:32:37.673Z,4.50
2019-04-01T23:35:06.790Z,4.60
2019-04-01T23:37:35.114Z,4.60
2019-04-01T23:40:04.100Z,4.70
2019-04-01T23:42:32.393Z,4.80
2019-04-01T23:45:00.644Z,4.80
2019-04-01T23:47:30.497Z,4.80
2019-04-01T23:49:58.266Z,4.80
2019-04-01T23:52:26.519Z,4.80
2019-04-01T23:54:54.995Z,4.80
2019-04-01T23:57:24.992Z,4.90
2019-04-01T23:59:53.480Z,4.80
